createdAt,value
2023-01-17T02:01:53.554Z,-0.91
2023-01-17T02:04:21.113Z,-0.90
2023-01-17T02:06:50.460Z,-0.93
2023-01-17T02:09:18.030Z,-0.95
2023-01-17T02:11:46.300Z,-0.98
2023-01-17T02:14:17.840Z,-1.00
2023-01-17T02:17:07.101Z,-1.04
2023-01-17T02:20:25.960Z,-1.08
2023-01-17T02:22:56.250Z,-1.12
2023-01-17T02:25:36.348Z,-1.14
2023-01-17T02:28:16.012Z,-1.17
2023-01-17T02:30:54.913Z,-1.20
2023-01-17T02:33:28.301Z,-1.21
2023-01-17T02:36:35.890Z,-1.23
2023-01-17T02:39:30.504Z,-1.24
2023-01-17T02:42:05.255Z,-1.25
2023-01-17T02:44:42.308Z,-1.28
2023-01-17T02:47:29.186Z,-1.31
2023-01-17T02:50:20.311Z,-1.33
2023-01-17T02:53:17.904Z,-1.36
2023-01-17T02:55:51.656Z,-1.38
2023-01-17T02:58:40.606Z,-1.39
2023-01-17T03:01:39.434Z,-1.41
2023-01-17T03:04:09.827Z,-1.42
2023-01-17T03:06:44.423Z,-1.45
2023-01-17T03:09:11.738Z,-1.47
2023-01-17T03:11:38.679Z,-1.49
2023-01-17T03:14:05.567Z,-1.50
2023-01-17T03:16:33.985Z,-1.50
2023-01-17T03:19:01.055Z,-1.49
2023-01-17T03:21:28.054Z,-1.49
2023-01-17T03:23:55.760Z,-1.48
2023-01-17T03:26:22.737Z,-1.47
2023-01-17T03:28:49.688Z,-1.47
2023-01-17T03:31:17.173Z,-1.47
2023-01-17T03:33:44.139Z,-1.48
2023-01-17T03:36:12.297Z,-1.49
2023-01-17T03:38:39.771Z,-1.50
2023-01-17T03:41:07.355Z,-1.50
2023-01-17T03:43:34.763Z,-1.49
2023-01-17T03:46:19.856Z,-1.48
2023-01-17T03:48:46.878Z,-1.49
2023-01-17T03:51:14.004Z,-1.50
2023-01-17T03:53:40.996Z,-1.51
2023-01-17T03:56:08.263Z,-1.51
2023-01-17T03:58:35.236Z,-1.51
2023-01-17T04:01:02.298Z,-1.52
2023-01-17T04:03:29.329Z,-1.53
2023-01-17T04:05:56.389Z,-1.54
2023-01-17T04:08:23.371Z,-1.54
2023-01-17T04:10:50.421Z,-1.55
2023-01-17T04:13:17.333Z,-1.55
2023-01-17T04:15:46.159Z,-1.52
2023-01-17T04:18:13.121Z,-1.50
2023-01-17T04:20:40.830Z,-1.47
2023-01-17T04:23:07.866Z,-1.43
2023-01-17T04:25:35.011Z,-1.39
2023-01-17T04:28:02.322Z,-1.35
2023-01-17T04:30:29.610Z,-1.30
2023-01-17T04:32:57.422Z,-1.27
2023-01-17T04:35:25.128Z,-1.24
2023-01-17T04:37:52.594Z,-1.21
2023-01-17T04:40:20.115Z,-1.19
2023-01-17T04:42:48.009Z,-1.18
2023-01-17T04:45:15.693Z,-1.17
2023-01-17T04:47:43.568Z,-1.17
2023-01-17T04:50:12.510Z,-1.16
2023-01-17T04:52:39.493Z,-1.15
2023-01-17T04:55:07.557Z,-1.14
2023-01-17T04:57:35.073Z,-1.14
2023-01-17T05:00:06.145Z,-1.13
2023-01-17T05:02:33.229Z,-1.11
2023-01-17T05:05:00.325Z,-1.10
2023-01-17T05:07:27.261Z,-1.09
2023-01-17T05:09:54.200Z,-1.09
2023-01-17T05:12:21.132Z,-1.08
2023-01-17T05:14:48.679Z,-1.08
2023-01-17T05:17:16.229Z,-1.08
2023-01-17T05:19:43.726Z,-1.09
2023-01-17T05:22:17.424Z,-1.08
2023-01-17T05:24:46.149Z,-1.11
2023-01-17T05:27:13.486Z,-1.12
2023-01-17T05:29:41.104Z,-1.14
2023-01-17T05:32:08.524Z,-1.15
2023-01-17T05:34:35.865Z,-1.16
2023-01-17T05:37:03.347Z,-1.17
2023-01-17T05:39:31.270Z,-1.18
2023-01-17T05:41:59.805Z,-1.19
2023-01-17T05:44:27.955Z,-1.19
2023-01-17T05:46:56.322Z,-1.19
2023-01-17T05:49:26.116Z,-1.20
2023-01-17T05:51:54.905Z,-1.20
2023-01-17T05:54:25.200Z,-1.20
2023-01-17T05:56:52.174Z,-1.20
2023-01-17T05:59:32.251Z,-1.20
2023-01-17T06:02:03.811Z,-1.20
2023-01-17T06:04:31.343Z,-1.18
2023-01-17T06:06:58.912Z,-1.18
2023-01-17T06:09:26.652Z,-1.15
2023-01-17T06:11:54.121Z,-1.12
2023-01-17T06:14:21.419Z,-1.09
2023-01-17T06:16:48.771Z,-1.05
2023-01-17T06:19:16.203Z,-1.00
2023-01-17T06:21:43.636Z,-0.96
2023-01-17T06:24:11.041Z,-0.93
2023-01-17T06:26:38.529Z,-0.89
2023-01-17T06:29:05.786Z,-0.86
2023-01-17T06:31:33.426Z,-0.83
2023-01-17T06:34:03.648Z,-0.79
2023-01-17T06:36:32.731Z,-0.76
2023-01-17T06:39:00.218Z,-0.72
2023-01-17T06:41:27.808Z,-0.67
2023-01-17T06:43:55.812Z,-0.61
2023-01-17T06:46:23.603Z,-0.57
2023-01-17T06:48:51.205Z,-0.52
2023-01-17T06:51:18.661Z,-0.47
2023-01-17T06:53:48.262Z,-0.41
2023-01-17T06:56:15.847Z,-0.35
2023-01-17T06:58:43.262Z,-0.30
2023-01-17T07:01:12.440Z,-0.24
2023-01-17T07:03:39.955Z,-0.17
2023-01-17T07:06:07.488Z,-0.10
2023-01-17T07:08:34.883Z,-0.02
2023-01-17T07:11:05.893Z,0.08
2023-01-17T07:13:36.418Z,0.16
2023-01-17T07:16:05.072Z,0.24
2023-01-17T07:18:32.828Z,0.30
2023-01-17T07:21:00.408Z,0.35
2023-01-17T07:23:27.745Z,0.41
2023-01-17T07:25:59.470Z,0.47
2023-01-17T07:28:27.780Z,0.51
2023-01-17T07:30:55.111Z,0.54
2023-01-17T07:33:22.554Z,0.57
2023-01-17T07:35:50.173Z,0.59
2023-01-17T07:38:18.830Z,0.61
2023-01-17T07:40:46.616Z,0.65
2023-01-17T07:43:14.371Z,0.66
2023-01-17T07:45:49.446Z,0.68
2023-01-17T07:48:18.030Z,0.67
2023-01-17T07:50:45.453Z,0.68
2023-01-17T07:53:12.930Z,0.69
2023-01-17T07:55:40.344Z,0.70
2023-01-17T07:58:07.894Z,0.70
2023-01-17T08:00:35.363Z,0.70
2023-01-17T08:03:02.857Z,0.72
2023-01-17T08:05:31.118Z,0.72
2023-01-17T08:07:58.505Z,0.71
2023-01-17T08:10:25.882Z,0.73
2023-01-17T08:12:53.331Z,0.74
2023-01-17T08:15:20.964Z,0.76
2023-01-17T08:17:49.041Z,0.77
2023-01-17T12:59:06.642Z,3.67
2023-01-17T13:01:43.487Z,3.73
2023-01-17T13:04:17.087Z,3.72
2023-01-17T13:06:46.215Z,3.69
2023-01-17T13:09:15.207Z,3.66
2023-01-17T13:11:47.940Z,3.65
2023-01-17T13:14:16.948Z,3.63
2023-01-17T13:16:50.498Z,3.61
2023-01-17T13:19:35.314Z,3.59
2023-01-17T13:22:05.736Z,3.58
2023-01-17T13:24:49.886Z,3.57
2023-01-17T13:27:31.596Z,3.56
2023-01-17T13:30:43.495Z,3.57
2023-01-17T13:33:19.987Z,3.55
2023-01-17T13:36:03.277Z,3.54
2023-01-17T13:38:57.684Z,3.54
2023-01-17T13:41:34.244Z,3.56
2023-01-17T13:44:20.331Z,3.55
2023-01-17T13:47:06.850Z,3.56
2023-01-17T13:49:36.245Z,3.57
2023-01-17T13:52:19.629Z,3.58
2023-01-17T13:54:53.069Z,3.59
2023-01-17T13:57:29.707Z,3.58
2023-01-17T13:59:58.343Z,3.57
2023-01-17T14:02:32.117Z,3.57
2023-01-17T14:05:07.138Z,3.57
2023-01-17T14:07:42.993Z,3.57
2023-01-17T14:10:27.250Z,3.55
2023-01-17T14:12:54.925Z,3.53
2023-01-17T14:15:27.818Z,3.53
2023-01-17T14:17:59.761Z,3.52
2023-01-17T14:20:27.980Z,3.50
2023-01-17T14:23:14.255Z,3.49
2023-01-17T14:25:41.894Z,3.46
2023-01-17T14:28:29.495Z,3.45
2023-01-17T14:30:57.092Z,3.44
2023-01-17T14:33:29.889Z,3.44
2023-01-17T14:35:59.182Z,3.44
2023-01-17T14:38:28.537Z,3.44
2023-01-17T14:41:04.917Z,3.43
2023-01-17T14:43:33.738Z,3.42
2023-01-17T14:46:03.291Z,3.40
2023-01-17T14:48:30.819Z,3.39
2023-01-17T14:51:00.416Z,3.38
2023-01-17T14:53:31.831Z,3.38
2023-01-17T14:56:11.620Z,3.37
2023-01-17T14:58:44.494Z,3.37
2023-01-17T15:01:13.881Z,3.38
2023-01-17T15:03:45.564Z,3.38
2023-01-17T15:06:16.995Z,3.39
2023-01-17T15:08:44.500Z,3.39
2023-01-17T15:11:26.269Z,3.40
2023-01-17T15:13:55.355Z,3.40
2023-01-17T15:16:37.593Z,3.41
2023-01-17T15:19:12.742Z,3.41
2023-01-17T15:21:43.242Z,3.42
2023-01-17T15:24:25.834Z,3.41
2023-01-17T15:26:54.864Z,3.41
2023-01-17T15:29:31.282Z,3.40
2023-01-17T15:32:00.124Z,3.41
2023-01-17T15:34:34.332Z,3.41
2023-01-17T15:37:08.307Z,3.41
2023-01-17T15:39:38.055Z,3.41
2023-01-17T15:42:07.539Z,3.42
2023-01-17T15:44:48.152Z,3.42
2023-01-17T15:47:38.786Z,3.43
2023-01-17T15:50:28.038Z,3.44
2023-01-17T15:52:57.686Z,3.44
2023-01-17T15:55:33.325Z,3.45
2023-01-17T15:58:01.186Z,3.45
2023-01-17T16:00:37.920Z,3.45
2023-01-17T16:03:36.437Z,3.47
2023-01-17T16:06:05.615Z,3.49
2023-01-17T16:08:39.434Z,3.49
2023-01-17T16:11:07.540Z,3.50
2023-01-17T16:13:39.405Z,3.51
2023-01-17T16:16:10.848Z,3.52
2023-01-17T16:18:38.391Z,3.54
2023-01-17T16:21:15.788Z,3.55
2023-01-17T16:23:43.179Z,3.56
2023-01-17T16:26:11.169Z,3.58
2023-01-17T16:28:38.691Z,3.58
2023-01-17T16:31:06.543Z,3.60
2023-01-17T16:33:33.990Z,3.62
2023-01-17T16:36:02.422Z,3.63
2023-01-17T16:38:33.322Z,3.65
2023-01-17T16:41:03.671Z,3.67
2023-01-17T16:43:31.644Z,3.68
2023-01-17T16:45:59.270Z,3.68
2023-01-17T16:48:26.949Z,3.69
2023-01-17T16:50:54.790Z,3.70
2023-01-17T16:53:24.908Z,3.70
2023-01-17T16:55:57.643Z,3.70
2023-01-17T16:58:25.134Z,3.70
2023-01-17T17:00:52.744Z,3.70
2023-01-17T17:03:21.068Z,3.68
2023-01-17T17:05:56.972Z,3.67
2023-01-17T17:08:24.663Z,3.68
2023-01-17T17:10:52.686Z,3.68
2023-01-17T17:13:20.441Z,3.68
2023-01-17T22:05:42.475Z,3.73
2023-01-17T22:08:14.650Z,3.82
2023-01-17T22:10:45.327Z,3.86
2023-01-17T22:13:17.076Z,3.88
2023-01-17T22:15:44.772Z,3.90
2023-01-17T22:18:13.190Z,3.93
2023-01-17T22:20:41.640Z,3.95
2023-01-17T22:23:09.285Z,3.96
2023-01-17T22:25:36.773Z,3.97
2023-01-17T22:28:04.356Z,3.98
2023-01-17T22:30:31.781Z,3.99
2023-01-17T22:32:59.395Z,4.00
2023-01-17T22:35:27.033Z,4.00
2023-01-17T22:37:54.703Z,4.01
2023-01-17T22:40:22.178Z,4.02
2023-01-17T22:42:49.556Z,4.03
2023-01-17T22:45:17.683Z,4.03
2023-01-17T22:47:45.246Z,4.04
2023-01-17T22:50:13.412Z,4.05
2023-01-17T22:52:40.840Z,4.05
2023-01-17T22:55:08.656Z,4.07
2023-01-17T22:57:36.823Z,4.07
2023-01-17T23:00:14.737Z,4.07
2023-01-17T23:02:42.916Z,4.07
2023-01-17T23:05:10.342Z,4.08
2023-01-17T23:07:43.936Z,4.08
2023-01-17T23:10:13.137Z,4.08
2023-01-17T23:12:40.597Z,4.08
2023-01-17T23:15:27.453Z,4.08
2023-01-17T23:18:13.879Z,4.07
2023-01-17T23:20:41.541Z,4.08
2023-01-17T23:23:08.936Z,4.09
2023-01-17T23:25:36.369Z,4.09
2023-01-17T23:28:14.581Z,4.11
2023-01-17T23:30:42.152Z,4.11
2023-01-17T23:33:11.771Z,4.13
2023-01-17T23:35:42.181Z,4.15
2023-01-17T23:38:26.233Z,4.16
2023-01-17T23:41:12.612Z,4.18
2023-01-17T23:43:40.166Z,4.19
2023-01-17T23:46:11.259Z,4.21
2023-01-17T23:48:38.694Z,4.23
2023-01-17T23:51:09.250Z,4.25
2023-01-17T23:53:43.858Z,4.28
2023-01-17T23:56:22.938Z,4.32
2023-01-17T23:58:50.466Z,4.36
